Time;durP1;ratioP1;P1;durP2;ratioP2;P2;SDS_P1;SDS_P2;PMS_P1;PMS_P2;Temp;Humidity;BMP_temperature;BMP_pressure;BME280_temperature;BME280_humidity;BME280_pressure;Samples;Min_cycle;Max_cycle;Signal;HPM_P1;HPM_P2
2022/07/05 00:00:45;;;;;;;3.33;2.10;;;13.20;99.90;;;;;;5076024;28;20040;-70
2022/07/05 00:03:11;;;;;;;3.60;2.30;;;13.20;99.90;;;;;;5075871;28;20041;-70
2022/07/05 00:05:37;;;;;;;3.85;2.15;;;13.10;99.90;;;;;;5075070;28;20055;-70
2022/07/05 00:08:04;;;;;;;5.50;1.98;;;13.10;99.90;;;;;;5075219;28;20052;-70
2022/07/05 00:10:30;;;;;;;6.80;2.55;;;13.00;99.90;;;;;;5075909;28;20041;-70
2022/07/05 00:12:56;;;;;;;4.95;1.95;;;13.10;99.90;;;;;;5057645;28;20058;-71
2022/07/05 00:15:22;;;;;;;5.15;2.53;;;13.00;99.90;;;;;;5058326;28;20386;-71
2022/07/05 00:17:48;;;;;;;3.63;2.15;;;13.00;99.90;;;;;;5091231;28;20036;-71
2022/07/05 00:20:14;;;;;;;3.40;2.10;;;12.90;99.90;;;;;;5061682;28;20138;-70
2022/07/05 00:22:40;;;;;;;4.03;2.33;;;12.90;99.90;;;;;;5078374;28;20040;-70
2022/07/05 00:25:06;;;;;;;5.57;2.42;;;12.90;99.90;;;;;;5077967;28;20055;-70
2022/07/05 00:27:31;;;;;;;4.15;2.47;;;12.90;99.90;;;;;;5078012;28;20126;-71
2022/07/05 00:29:57;;;;;;;3.90;2.15;;;12.80;99.90;;;;;;5095771;28;20044;-70
2022/07/05 00:32:23;;;;;;;6.95;2.40;;;12.80;99.90;;;;;;5081428;28;20135;-70
2022/07/05 00:34:48;;;;;;;4.22;2.03;;;12.80;99.90;;;;;;5057880;28;20052;-70
2022/07/05 00:37:14;;;;;;;3.88;2.55;;;12.70;99.90;;;;;;5057972;28;20044;-70
2022/07/05 00:39:39;;;;;;;6.13;2.28;;;12.70;99.90;;;;;;5057451;28;20041;-69
2022/07/05 00:42:05;;;;;;;3.38;2.08;;;12.60;99.90;;;;;;5057905;28;20080;-70
2022/07/05 00:44:36;;;;;;;3.35;2.20;;;12.60;99.90;;;;;;5075629;28;20044;-69
2022/07/05 00:47:04;;;;;;;6.25;2.25;;;12.60;99.90;;;;;;5066990;28;20049;-70
2022/07/05 00:49:30;;;;;;;4.95;2.33;;;12.50;99.90;;;;;;5057509;28;20063;-71
2022/07/05 00:51:56;;;;;;;3.80;2.10;;;12.60;99.90;;;;;;5056749;28;20052;-70
2022/07/05 00:54:22;;;;;;;6.57;2.47;;;12.50;99.90;;;;;;5057935;28;20052;-71
2022/07/05 00:56:48;;;;;;;3.90;2.25;;;12.50;99.90;;;;;;5057619;28;20052;-70
2022/07/05 00:59:14;;;;;;;5.07;2.10;;;12.50;99.90;;;;;;5057322;28;20052;-71
2022/07/05 01:01:39;;;;;;;2.92;1.77;;;12.50;99.90;;;;;;5069105;28;20044;-69
2022/07/05 01:04:05;;;;;;;4.32;2.20;;;12.40;99.90;;;;;;5072650;28;20395;-70
2022/07/05 01:06:31;;;;;;;4.25;2.45;;;12.40;99.90;;;;;;5075094;28;20445;-69
2022/07/05 01:08:57;;;;;;;3.42;2.00;;;12.30;99.90;;;;;;5057401;28;20105;-70
2022/07/05 01:11:23;;;;;;;4.47;2.30;;;12.30;99.90;;;;;;5057757;28;20044;-71
2022/07/05 01:13:49;;;;;;;4.32;2.10;;;12.30;99.90;;;;;;5056850;28;20123;-70
2022/07/05 01:16:15;;;;;;;4.03;2.40;;;12.30;99.90;;;;;;5074853;28;20435;-70
2022/07/05 01:18:41;;;;;;;5.88;2.30;;;12.30;99.90;;;;;;5074452;28;20037;-70
2022/07/05 01:21:07;;;;;;;3.15;2.05;;;12.20;99.90;;;;;;5057611;28;20048;-69
2022/07/05 01:23:33;;;;;;;3.67;2.20;;;12.20;99.90;;;;;;5057359;28;20380;-70
2022/07/05 01:26:02;;;;;;;5.72;2.22;;;12.20;99.90;;;;;;5057405;28;20048;-70
2022/07/05 01:28:28;;;;;;;4.85;2.38;;;12.20;99.90;;;;;;5074778;28;20044;-71
2022/07/05 01:30:53;;;;;;;3.63;2.17;;;12.20;99.90;;;;;;5075503;28;20044;-70
2022/07/05 01:33:25;;;;;;;3.88;2.00;;;12.10;99.90;;;;;;5057724;28;20048;-70
2022/07/05 01:35:51;;;;;;;5.60;2.20;;;12.10;99.90;;;;;;5074452;28;20568;-70
2022/07/05 01:38:17;;;;;;;5.63;2.25;;;12.10;99.90;;;;;;5056607;28;20088;-70
2022/07/05 01:40:42;;;;;;;4.47;2.20;;;12.10;99.90;;;;;;5074682;28;20041;-69
2022/07/05 01:43:08;;;;;;;5.78;2.75;;;12.10;99.90;;;;;;5057281;28;20052;-70
2022/07/05 01:45:39;;;;;;;4.05;2.20;;;12.00;99.90;;;;;;5057197;28;20127;-70
2022/07/05 01:48:17;;;;;;;2.90;1.95;;;12.10;99.90;;;;;;5074422;28;20102;-70
2022/07/05 01:50:53;;;;;;;4.55;2.50;;;12.10;99.90;;;;;;5057133;28;20067;-70
2022/07/05 01:53:24;;;;;;;3.83;2.28;;;12.10;99.90;;;;;;5041197;28;20157;-71
2022/07/05 01:55:50;;;;;;;4.78;1.80;;;12.10;99.90;;;;;;5074621;28;20048;-69
2022/07/05 01:58:17;;;;;;;3.90;2.45;;;12.10;99.90;;;;;;5074080;28;20453;-70
2022/07/05 02:00:54;;;;;;;3.97;2.20;;;12.00;99.90;;;;;;5057222;28;20049;-70
2022/07/05 02:03:20;;;;;;;4.03;2.20;;;12.10;99.90;;;;;;5076286;28;20044;-69
2022/07/05 02:05:46;;;;;;;5.93;2.70;;;12.00;99.90;;;;;;5056568;28;20446;-71
2022/07/05 02:08:13;;;;;;;4.20;2.17;;;12.00;99.90;;;;;;5058084;28;20075;-70
2022/07/05 02:10:39;;;;;;;4.05;2.58;;;12.00;99.90;;;;;;5041392;28;20155;-70
2022/07/05 02:13:05;;;;;;;4.05;2.75;;;12.00;99.90;;;;;;5040573;28;20124;-70
2022/07/05 02:15:33;;;;;;;3.22;2.00;;;12.00;99.90;;;;;;5040863;28;20099;-70
2022/07/05 02:17:59;;;;;;;4.05;2.10;;;11.90;99.90;;;;;;5041012;28;20071;-70
2022/07/05 02:20:25;;;;;;;3.65;2.17;;;11.90;99.90;;;;;;5057951;28;20166;-70
2022/07/05 02:22:50;;;;;;;3.40;2.13;;;11.90;99.90;;;;;;5040382;28;20091;-71
2022/07/05 02:25:16;;;;;;;4.13;2.50;;;11.80;99.90;;;;;;5057686;28;20049;-71
2022/07/05 02:27:41;;;;;;;3.97;2.13;;;11.70;99.90;;;;;;5040622;28;20052;-69
2022/07/05 02:30:08;;;;;;;4.35;2.30;;;11.70;99.90;;;;;;5040093;28;20497;-70
2022/07/05 02:32:33;;;;;;;4.57;2.10;;;11.70;99.90;;;;;;5057061;28;20072;-70
2022/07/05 02:34:59;;;;;;;4.20;2.10;;;11.70;99.90;;;;;;5044361;28;20445;-69
2022/07/05 02:37:24;;;;;;;3.83;2.28;;;11.70;99.90;;;;;;5054738;28;20094;-70
2022/07/05 02:39:50;;;;;;;3.85;2.55;;;11.60;99.90;;;;;;5059951;28;20147;-69
2022/07/05 02:42:16;;;;;;;6.68;2.50;;;11.70;99.90;;;;;;5060120;28;20048;-70
2022/07/05 02:44:41;;;;;;;6.05;2.63;;;11.70;99.90;;;;;;5060639;28;20353;-70
2022/07/05 02:47:07;;;;;;;4.82;2.30;;;11.60;99.90;;;;;;5059727;28;20117;-70
2022/07/05 02:49:32;;;;;;;3.42;2.25;;;11.60;99.90;;;;;;5043666;28;20070;-71
2022/07/05 02:51:58;;;;;;;5.05;2.88;;;11.60;99.90;;;;;;5072858;28;20052;-70
2022/07/05 02:54:23;;;;;;;4.88;2.83;;;11.60;99.90;;;;;;5060007;28;20499;-69
2022/07/05 02:56:49;;;;;;;4.45;2.78;;;11.50;99.90;;;;;;5060055;28;20094;-69
2022/07/05 02:59:14;;;;;;;4.15;2.00;;;11.50;99.90;;;;;;5077314;28;20051;-70
2022/07/05 03:01:40;;;;;;;4.82;2.47;;;11.50;99.90;;;;;;5059707;28;20334;-70
2022/07/05 03:04:06;;;;;;;5.40;2.50;;;11.50;99.90;;;;;;5077323;28;20125;-70
2022/07/05 03:06:32;;;;;;;3.55;2.17;;;11.50;99.90;;;;;;5097557;28;20440;-70
2022/07/05 03:08:58;;;;;;;3.63;2.53;;;11.50;99.90;;;;;;5079590;28;20479;-70
2022/07/05 03:11:24;;;;;;;4.00;2.50;;;11.40;99.90;;;;;;5079129;28;20094;-70
2022/07/05 03:13:49;;;;;;;8.88;2.90;;;11.40;99.90;;;;;;5079462;28;20076;-70
2022/07/05 03:16:15;;;;;;;4.20;2.72;;;11.40;99.90;;;;;;5097182;28;20040;-69
2022/07/05 03:18:41;;;;;;;6.97;2.80;;;11.40;99.90;;;;;;5079900;28;20055;-70
2022/07/05 03:21:06;;;;;;;4.28;2.40;;;11.40;99.90;;;;;;5075435;28;20354;-70
2022/07/05 03:23:32;;;;;;;3.97;2.50;;;11.30;99.90;;;;;;5058981;28;20075;-70
2022/07/05 03:25:57;;;;;;;4.43;3.03;;;11.30;99.90;;;;;;5059410;28;20468;-71
2022/07/05 03:28:23;;;;;;;3.78;2.58;;;11.30;99.90;;;;;;5059011;28;20052;-69
2022/07/05 03:30:49;;;;;;;4.15;2.80;;;11.30;99.90;;;;;;5059538;28;20052;-69
2022/07/05 03:33:14;;;;;;;7.03;3.55;;;11.30;99.90;;;;;;5059316;28;20082;-70
2022/07/05 03:35:40;;;;;;;7.18;2.95;;;11.30;99.90;;;;;;5075579;28;20056;-70
2022/07/05 03:38:05;;;;;;;4.20;2.67;;;11.30;99.90;;;;;;5058780;28;20464;-70
2022/07/05 03:40:31;;;;;;;11.88;3.42;;;11.30;99.90;;;;;;5076308;28;20036;-70
2022/07/05 03:42:57;;;;;;;5.35;2.90;;;11.40;99.90;;;;;;5076437;28;20047;-70
2022/07/05 03:45:22;;;;;;;4.47;3.10;;;11.40;99.90;;;;;;5059032;28;20048;-69
2022/07/05 03:47:48;;;;;;;5.25;3.15;;;11.40;99.90;;;;;;5058858;28;20475;-70
2022/07/05 03:50:14;;;;;;;3.72;2.90;;;11.40;99.90;;;;;;5058243;28;20113;-70
2022/07/05 03:52:39;;;;;;;6.68;3.67;;;11.50;99.90;;;;;;5076051;28;20135;-69
2022/07/05 03:55:05;;;;;;;5.65;3.22;;;11.50;99.90;;;;;;5058659;28;20063;-70
2022/07/05 03:57:32;;;;;;;6.30;3.10;;;11.50;99.90;;;;;;5042514;28;20037;-69
2022/07/05 03:59:57;;;;;;;6.00;3.35;;;11.50;99.90;;;;;;5059136;28;20492;-71
2022/07/05 04:02:24;;;;;;;5.43;3.25;;;11.60;99.90;;;;;;5076314;28;20083;-69
2022/07/05 04:04:50;;;;;;;6.03;3.47;;;11.50;99.90;;;;;;5067016;28;20086;-70
2022/07/05 04:07:16;;;;;;;4.63;3.08;;;11.60;99.90;;;;;;5086015;28;20056;-70
2022/07/05 04:09:41;;;;;;;5.32;3.15;;;11.60;99.90;;;;;;5058008;28;20052;-70
2022/07/05 04:12:07;;;;;;;6.18;3.47;;;11.60;99.90;;;;;;5087358;28;20043;-70
2022/07/05 04:14:33;;;;;;;5.97;3.90;;;11.70;99.90;;;;;;5095824;28;20055;-69
2022/07/05 04:16:58;;;;;;;7.60;3.58;;;11.70;99.90;;;;;;5078108;28;20048;-69
2022/07/05 04:19:24;;;;;;;6.05;3.63;;;11.70;99.90;;;;;;5096179;28;20048;-69
2022/07/05 04:21:49;;;;;;;5.53;3.38;;;11.80;99.90;;;;;;5095534;28;20039;-70
2022/07/05 04:24:15;;;;;;;5.82;3.28;;;11.80;99.90;;;;;;5049924;28;20455;-70
2022/07/05 04:26:41;;;;;;;5.30;3.65;;;11.90;99.90;;;;;;5075519;28;20041;-70
2022/07/05 04:29:06;;;;;;;6.68;3.20;;;11.90;99.90;;;;;;5058138;28;20453;-70
2022/07/05 04:31:32;;;;;;;7.28;3.90;;;12.00;99.90;;;;;;5075573;28;20123;-70
2022/07/05 04:33:57;;;;;;;6.57;3.85;;;12.00;99.90;;;;;;5057663;28;20101;-69
2022/07/05 04:36:23;;;;;;;9.40;4.03;;;12.10;99.90;;;;;;5075008;28;20094;-69
2022/07/05 04:38:49;;;;;;;8.50;4.43;;;12.20;99.90;;;;;;5075558;28;20427;-69
2022/07/05 04:41:14;;;;;;;6.05;3.97;;;12.30;99.90;;;;;;5095251;28;20127;-70
2022/07/05 04:43:40;;;;;;;7.32;4.32;;;12.40;99.90;;;;;;5095765;28;20032;-69
2022/07/05 04:46:05;;;;;;;6.20;3.75;;;12.70;99.90;;;;;;5095519;28;20093;-70
2022/07/05 04:48:31;;;;;;;5.97;3.97;;;12.80;99.90;;;;;;5077994;28;20397;-69
2022/07/05 04:50:57;;;;;;;6.10;3.28;;;13.00;99.90;;;;;;5077195;28;20048;-69
2022/07/05 04:53:22;;;;;;;5.45;3.72;;;13.20;99.90;;;;;;5077320;28;20058;-69
2022/07/05 04:55:48;;;;;;;7.32;4.05;;;13.50;99.90;;;;;;5059194;28;20052;-70
2022/07/05 04:58:14;;;;;;;6.57;3.08;;;13.60;99.90;;;;;;5075141;28;20048;-70
2022/07/05 05:00:40;;;;;;;5.72;3.63;;;13.80;99.90;;;;;;5057910;28;20528;-70
2022/07/05 05:03:06;;;;;;;6.20;3.58;;;13.90;99.90;;;;;;5057563;28;20330;-69
2022/07/05 05:05:31;;;;;;;5.05;3.67;;;14.10;99.90;;;;;;5056838;28;20114;-70
2022/07/05 05:07:57;;;;;;;5.57;3.75;;;14.20;99.90;;;;;;5057754;28;20376;-70
2022/07/05 05:10:22;;;;;;;16.05;3.72;;;14.30;99.90;;;;;;5075291;28;20036;-70
2022/07/05 05:12:48;;;;;;;4.25;2.78;;;14.40;99.90;;;;;;5057393;28;20094;-70
2022/07/05 05:15:14;;;;;;;5.80;3.42;;;14.40;99.90;;;;;;5074822;28;20372;-70
2022/07/05 05:17:41;;;;;;;7.45;4.25;;;14.40;99.90;;;;;;5057243;28;20053;-71
2022/07/05 05:20:11;;;;;;;8.43;4.57;;;14.90;99.90;;;;;;5057145;28;20354;-70
2022/07/05 05:22:37;;;;;;;5.18;3.80;;;16.40;99.90;;;;;;5057158;28;20048;-70
2022/07/05 05:25:03;;;;;;;7.63;3.65;;;17.90;99.90;;;;;;5074893;28;20048;-71
2022/07/05 05:27:28;;;;;;;5.65;3.45;;;19.40;99.90;;;;;;5057602;28;20051;-70
2022/07/05 05:29:54;;;;;;;5.18;3.03;;;20.80;99.90;;;;;;5057907;28;20036;-70
2022/07/05 05:32:20;;;;;;;12.70;3.35;;;21.70;99.90;;;;;;5061814;28;20040;-69
2022/07/05 05:34:45;;;;;;;4.28;2.45;;;22.60;99.90;;;;;;5073951;28;20044;-70
2022/07/05 05:37:11;;;;;;;3.50;2.33;;;23.30;99.90;;;;;;5079766;28;20597;-70
2022/07/05 05:39:36;;;;;;;5.22;2.10;;;23.80;99.90;;;;;;5081054;28;20040;-69
2022/07/05 05:42:02;;;;;;;4.85;1.88;;;24.40;99.90;;;;;;5081548;28;20071;-70
2022/07/05 05:44:28;;;;;;;3.50;1.80;;;25.10;99.20;;;;;;5098732;28;20043;-70
2022/07/05 05:46:53;;;;;;;4.32;1.83;;;25.70;99.30;;;;;;5094668;28;20036;-71
2022/07/05 05:49:19;;;;;;;3.03;1.60;;;25.90;96.10;;;;;;5083281;28;20041;-72
2022/07/05 05:51:44;;;;;;;5.28;2.08;;;26.50;97.30;;;;;;5078353;28;20452;-71
2022/07/05 05:54:10;;;;;;;3.38;1.70;;;26.70;96.80;;;;;;5075972;28;20049;-72
2022/07/05 05:56:38;;;;;;;2.63;1.75;;;26.70;96.10;;;;;;5060571;28;20053;-72
2022/07/05 05:59:03;;;;;;;2.50;1.50;;;27.00;95.70;;;;;;5079676;28;20049;-72
2022/07/05 06:01:29;;;;;;;3.72;1.45;;;27.30;95.00;;;;;;5097646;28;20032;-72
2022/07/05 06:03:54;;;;;;;3.58;1.40;;;27.50;94.80;;;;;;5063234;28;20380;-72
2022/07/05 06:06:20;;;;;;;3.35;1.48;;;27.80;94.60;;;;;;5068180;28;20054;-72
2022/07/05 06:08:46;;;;;;;3.50;1.30;;;28.00;93.90;;;;;;5092729;28;20044;-73
2022/07/05 06:11:13;;;;;;;4.65;1.20;;;28.30;93.70;;;;;;5079086;28;20049;-73
2022/07/05 06:13:39;;;;;;;2.75;1.13;;;28.30;93.00;;;;;;5081830;28;20389;-73
2022/07/05 06:16:06;;;;;;;4.50;1.35;;;28.70;92.50;;;;;;5077924;28;20044;-73
2022/07/05 06:18:32;;;;;;;1.98;1.10;;;29.20;91.60;;;;;;5093931;28;20130;-73
2022/07/05 06:20:57;;;;;;;2.83;1.35;;;29.40;92.00;;;;;;5085878;28;20179;-72
2022/07/05 06:23:23;;;;;;;1.95;0.90;;;29.60;91.50;;;;;;5080222;28;20055;-72
2022/07/05 06:25:48;;;;;;;2.15;0.90;;;29.80;91.00;;;;;;5086843;28;20055;-71
2022/07/05 06:28:15;;;;;;;2.55;1.00;;;30.20;91.10;;;;;;5067160;28;20129;-72
2022/07/05 06:30:41;;;;;;;5.88;1.55;;;30.30;90.30;;;;;;5064546;28;20406;-73
2022/07/05 06:33:07;;;;;;;2.67;1.20;;;30.40;89.50;;;;;;5080262;28;20040;-73
2022/07/05 06:35:33;;;;;;;2.35;0.80;;;30.70;87.50;;;;;;5097636;28;20122;-71
2022/07/05 06:38:07;;;;;;;7.10;1.00;;;30.70;88.10;;;;;;5080105;28;20089;-71
2022/07/05 06:40:38;;;;;;;2.30;1.02;;;30.80;87.50;;;;;;5079646;28;20044;-70
2022/07/05 06:43:06;;;;;;;6.72;1.15;;;30.60;87.10;;;;;;5080026;28;20113;-73
2022/07/05 06:45:32;;;;;;;3.95;0.90;;;30.80;87.80;;;;;;5070769;28;20425;-71
2022/07/05 06:48:03;;;;;;;2.33;0.88;;;30.70;86.30;;;;;;5094259;28;20087;-71
2022/07/05 06:50:35;;;;;;;2.30;0.60;;;30.60;86.20;;;;;;5078731;28;20044;-69
2022/07/05 06:53:01;;;;;;;;;;;30.70;86.80;;;;;;5098059;28;20321;-69
2022/07/05 06:55:27;;;;;;;3.25;0.80;;;30.60;85.60;;;;;;5082877;28;19919;-70
2022/07/05 06:58:05;;;;;;;3.75;0.90;;;30.80;86.60;;;;;;5099690;28;20430;-69
2022/07/05 07:00:31;;;;;;;4.47;1.30;;;31.00;85.40;;;;;;5079301;28;20048;-69
2022/07/05 07:02:57;;;;;;;1.95;0.70;;;31.00;85.20;;;;;;5079672;28;20055;-69
2022/07/05 07:05:23;;;;;;;4.13;0.70;;;31.20;85.50;;;;;;5076580;28;20102;-69
2022/07/05 07:10:33;;;;;;;4.38;0.90;;;31.40;83.90;;;;;;5076197;28;20049;-70
2022/07/05 07:13:00;;;;;;;2.72;0.60;;;30.70;81.40;;;;;;5064830;28;20040;-71
2022/07/05 07:15:26;;;;;;;3.20;0.60;;;30.90;83.20;;;;;;5075073;28;20369;-71
2022/07/05 07:17:52;;;;;;;4.10;0.70;;;31.20;83.30;;;;;;5059580;28;20394;-70
2022/07/05 07:20:18;;;;;;;3.20;0.70;;;31.20;82.00;;;;;;5059252;28;20055;-70
2022/07/05 07:22:43;;;;;;;2.83;0.95;;;31.20;82.20;;;;;;5076380;28;20396;-70
2022/07/05 07:25:11;;;;;;;2.30;0.70;;;31.10;81.20;;;;;;5059347;28;20460;-71
2022/07/05 07:27:48;;;;;;;1.85;0.80;;;30.70;80.30;;;;;;5059697;28;20127;-71
2022/07/05 07:30:16;;;;;;;3.30;0.60;;;29.90;81.20;;;;;;5070222;28;20094;-71
2022/07/05 07:32:42;;;;;;;1.83;0.52;;;28.90;82.10;;;;;;5058978;28;20091;-72
2022/07/05 07:35:08;;;;;;;1.15;0.50;;;28.40;84.10;;;;;;5058651;28;20051;-71
2022/07/05 07:37:34;;;;;;;2.78;0.80;;;28.30;83.10;;;;;;5059168;28;20338;-70
2022/07/05 07:40:01;;;;;;;1.05;0.50;;;27.40;83.20;;;;;;5060475;28;20117;-69
2022/07/05 07:42:27;;;;;;;2.85;0.75;;;26.40;85.10;;;;;;5065912;28;20048;-69
2022/07/05 07:44:53;;;;;;;2.25;0.70;;;25.60;87.30;;;;;;5072794;28;20044;-69
2022/07/05 07:47:18;;;;;;;4.20;0.80;;;24.90;89.30;;;;;;5076684;28;20053;-70
2022/07/05 07:49:44;;;;;;;2.05;0.73;;;24.40;90.00;;;;;;5058317;28;20053;-69
2022/07/05 07:52:10;;;;;;;2.55;0.70;;;24.00;90.40;;;;;;5081653;28;20051;-72
2022/07/05 07:54:35;;;;;;;3.72;1.20;;;23.70;91.10;;;;;;5096562;28;20126;-70
2022/07/05 07:57:04;;;;;;;5.53;0.93;;;24.30;92.00;;;;;;5090041;28;20041;-70
2022/07/05 07:59:29;;;;;;;3.60;0.73;;;25.70;90.90;;;;;;5080537;28;20049;-71
2022/07/05 08:01:55;;;;;;;3.78;0.80;;;26.60;89.30;;;;;;5077902;28;20048;-71
2022/07/05 08:04:20;;;;;;;4.05;0.88;;;27.40;90.00;;;;;;5116224;28;20107;-70
2022/07/05 08:06:46;;;;;;;2.47;1.00;;;28.10;87.40;;;;;;5116940;28;20073;-70
2022/07/05 08:09:12;;;;;;;1.88;0.70;;;28.50;86.70;;;;;;5098920;28;20130;-71
2022/07/05 08:11:38;;;;;;;1.15;0.60;;;27.70;84.90;;;;;;5081228;28;20048;-70
2022/07/05 08:14:03;;;;;;;2.80;0.90;;;26.70;87.10;;;;;;5075194;28;20056;-70
2022/07/05 08:16:29;;;;;;;3.80;0.60;;;25.70;87.40;;;;;;5071371;28;20119;-71
2022/07/05 08:21:39;;;;;;;2.45;0.82;;;24.80;87.50;;;;;;5098242;28;20054;-71
2022/07/05 08:24:11;;;;;;;4.38;0.85;;;24.20;90.40;;;;;;5110367;28;20036;-71
2022/07/05 08:26:37;;;;;;;5.78;0.80;;;23.70;89.70;;;;;;5094437;28;20464;-70
2022/07/05 08:29:05;;;;;;;4.00;0.68;;;23.90;90.60;;;;;;5077940;28;20105;-71
2022/07/05 08:31:34;;;;;;;1.55;0.57;;;24.60;91.20;;;;;;5077929;28;20451;-70
2022/07/05 08:34:01;;;;;;;2.88;0.80;;;25.50;90.80;;;;;;5095980;28;20520;-70
2022/07/05 08:36:27;;;;;;;1.95;0.70;;;26.30;90.20;;;;;;5077779;28;20040;-71
2022/07/05 08:38:53;;;;;;;2.90;1.00;;;26.90;89.80;;;;;;5077870;28;20043;-71
2022/07/05 08:41:20;;;;;;;1.42;0.50;;;27.40;89.10;;;;;;5058935;28;20048;-71
2022/07/05 08:43:48;;;;;;;1.95;0.55;;;28.00;88.10;;;;;;5057548;28;20067;-72
2022/07/05 08:46:18;;;;;;;3.22;0.68;;;28.40;85.30;;;;;;5058015;28;20147;-71
2022/07/05 08:48:47;;;;;;;1.15;0.60;;;27.60;86.60;;;;;;5075174;28;20070;-71
2022/07/05 08:51:21;;;;;;;4.38;0.80;;;26.70;86.60;;;;;;5057033;28;20053;-71
2022/07/05 08:53:47;;;;;;;4.88;0.52;;;25.80;87.10;;;;;;5057613;28;20139;-71
2022/07/05 08:56:14;;;;;;;3.20;0.90;;;25.00;88.20;;;;;;5057416;28;20512;-71
2022/07/05 08:58:40;;;;;;;2.60;0.82;;;24.40;87.80;;;;;;5057420;28;20048;-70
2022/07/05 09:01:07;;;;;;;3.42;0.60;;;24.10;89.70;;;;;;5057732;28;20045;-70
2022/07/05 09:03:45;;;;;;;4.00;0.85;;;23.80;90.30;;;;;;5075418;28;20040;-70
2022/07/05 09:06:13;;;;;;;2.58;0.55;;;23.80;90.40;;;;;;5058039;28;20113;-71
2022/07/05 09:08:40;;;;;;;2.40;1.17;;;23.70;90.30;;;;;;5075236;28;20069;-70
2022/07/05 09:11:11;;;;;;;3.08;0.85;;;23.90;90.70;;;;;;5057219;28;20040;-70
2022/07/05 09:13:39;;;;;;;3.58;1.10;;;23.90;90.00;;;;;;5056474;28;20059;-70
2022/07/05 09:16:05;;;;;;;3.28;0.70;;;23.90;90.40;;;;;;5075231;28;20048;-70
2022/07/05 09:18:43;;;;;;;2.47;0.93;;;23.90;90.50;;;;;;5075156;28;20048;-70
2022/07/05 09:21:16;;;;;;;3.60;1.00;;;24.50;90.80;;;;;;5057380;28;20056;-71
2022/07/05 09:23:42;;;;;;;3.88;0.82;;;25.40;90.20;;;;;;5057216;28;20101;-71
2022/07/05 09:26:08;;;;;;;3.13;1.20;;;25.50;88.40;;;;;;5092682;28;20075;-71
2022/07/05 09:28:34;;;;;;;4.15;1.15;;;25.10;85.70;;;;;;5095118;28;20503;-71
2022/07/05 09:30:59;;;;;;;2.90;0.70;;;24.90;89.40;;;;;;5094787;28;20494;-70
2022/07/05 09:33:25;;;;;;;2.05;0.77;;;24.50;88.10;;;;;;5077368;28;20052;-71
2022/07/05 09:35:58;;;;;;;2.55;0.93;;;24.20;87.70;;;;;;5077327;28;20055;-71
2022/07/05 09:38:26;;;;;;;2.25;0.80;;;24.30;90.00;;;;;;5061039;28;20091;-71
2022/07/05 09:40:56;;;;;;;1.38;0.70;;;24.40;89.00;;;;;;5057565;28;20342;-70
2022/07/05 09:43:27;;;;;;;2.90;0.70;;;24.70;88.90;;;;;;5057292;28;20453;-70
2022/07/05 09:46:00;;;;;;;2.38;0.70;;;24.80;87.40;;;;;;5057171;28;20040;-70
2022/07/05 09:48:28;;;;;;;1.65;0.60;;;25.00;87.70;;;;;;5056931;28;20136;-70
2022/07/05 09:51:08;;;;;;;2.75;1.20;;;24.90;86.10;;;;;;5057249;28;20139;-70
2022/07/05 09:53:48;;;;;;;2.13;0.70;;;24.90;83.90;;;;;;5075096;28;20066;-70
2022/07/05 09:56:13;;;;;;;2.78;0.93;;;25.00;87.20;;;;;;5077125;28;20131;-71
2022/07/05 09:58:40;;;;;;;1.98;0.65;;;25.30;88.10;;;;;;5077066;28;20524;-71
2022/07/05 10:01:24;;;;;;;2.60;0.75;;;25.30;86.00;;;;;;5076812;28;20079;-70
2022/07/05 10:03:54;;;;;;;2.58;0.77;;;25.20;87.70;;;;;;5076895;28;20135;-71
2022/07/05 10:06:22;;;;;;;2.17;0.65;;;25.00;86.90;;;;;;5076771;28;20047;-71
2022/07/05 10:08:49;;;;;;;3.85;1.08;;;24.80;86.80;;;;;;5094671;28;20040;-72
2022/07/05 10:11:19;;;;;;;3.70;0.90;;;24.80;86.80;;;;;;5077566;28;20349;-71
2022/07/05 10:13:48;;;;;;;1.33;0.90;;;24.80;87.20;;;;;;5077132;28;20410;-71
2022/07/05 10:16:16;;;;;;;2.13;0.90;;;25.10;88.70;;;;;;5077378;28;20353;-71
2022/07/05 10:18:43;;;;;;;2.13;0.90;;;25.20;87.20;;;;;;5077162;28;20422;-71
2022/07/05 10:21:14;;;;;;;1.92;0.80;;;25.10;87.10;;;;;;5074121;28;20108;-71
2022/07/05 10:23:46;;;;;;;3.10;0.65;;;24.90;86.30;;;;;;5057300;28;20079;-71
2022/07/05 10:26:13;;;;;;;2.70;1.02;;;24.80;87.60;;;;;;5077715;28;20044;-71
2022/07/05 10:28:47;;;;;;;5.47;0.80;;;24.60;88.00;;;;;;5060970;28;20052;-71
2022/07/05 10:31:14;;;;;;;3.78;1.00;;;24.30;88.10;;;;;;5060547;28;20044;-71
2022/07/05 10:33:40;;;;;;;1.40;0.88;;;24.20;90.10;;;;;;5077614;28;20040;-72
2022/07/05 10:36:10;;;;;;;2.42;0.80;;;24.30;89.50;;;;;;5059775;28;20044;-71
2022/07/05 10:38:47;;;;;;;2.50;0.60;;;24.10;89.90;;;;;;5059680;28;20506;-71
2022/07/05 10:41:23;;;;;;;2.80;0.70;;;24.20;90.40;;;;;;5077668;28;20064;-71
2022/07/05 10:43:55;;;;;;;3.22;1.02;;;24.00;88.20;;;;;;5060291;28;20461;-71
2022/07/05 10:46:35;;;;;;;1.98;0.90;;;24.00;88.50;;;;;;5059699;28;20127;-72
2022/07/05 10:49:13;;;;;;;1.73;0.70;;;24.00;88.60;;;;;;5077846;28;20044;-70
2022/07/05 10:51:39;;;;;;;3.90;1.00;;;23.90;89.10;;;;;;5077031;28;20384;-70
2022/07/05 10:54:05;;;;;;;3.63;0.70;;;24.00;90.10;;;;;;5043288;28;20045;-70
2022/07/05 10:56:31;;;;;;;1.30;0.75;;;24.00;88.20;;;;;;5060314;28;20405;-71
2022/07/05 10:59:12;;;;;;;2.08;0.70;;;24.00;89.60;;;;;;5061103;28;20460;-71
2022/07/05 11:01:39;;;;;;;2.78;0.70;;;24.30;88.70;;;;;;5071142;28;20123;-71
2022/07/05 11:04:05;;;;;;;3.45;0.70;;;24.10;86.80;;;;;;5059702;28;20052;-71
2022/07/05 11:06:37;;;;;;;2.00;0.60;;;24.10;87.80;;;;;;5077145;28;20052;-72
2022/07/05 11:09:03;;;;;;;2.72;0.93;;;24.40;87.60;;;;;;5059485;28;20059;-71
2022/07/05 11:11:40;;;;;;;2.92;0.90;;;24.60;87.20;;;;;;5077009;28;20049;-71
2022/07/05 11:14:29;;;;;;;1.65;0.68;;;24.80;86.80;;;;;;5059578;28;20080;-71
2022/07/05 11:17:15;;;;;;;2.55;0.73;;;24.80;82.70;;;;;;5059437;28;20056;-70
2022/07/05 11:19:59;;;;;;;2.08;0.60;;;25.10;84.50;;;;;;5077135;28;20528;-70
2022/07/05 11:22:26;;;;;;;3.05;0.70;;;25.10;84.10;;;;;;5076750;28;20040;-70
2022/07/05 11:24:52;;;;;;;2.75;0.80;;;25.40;85.70;;;;;;5077121;28;20091;-70
2022/07/05 11:27:18;;;;;;;3.40;0.90;;;25.40;85.40;;;;;;5059174;28;20054;-70
2022/07/05 11:29:50;;;;;;;1.70;0.82;;;25.40;85.30;;;;;;5059576;28;20052;-70
2022/07/05 11:32:20;;;;;;;4.65;0.70;;;25.60;85.80;;;;;;5076689;28;20043;-70
2022/07/05 11:34:50;;;;;;;3.47;1.10;;;25.40;85.20;;;;;;5058575;28;20468;-70
2022/07/05 11:37:21;;;;;;;5.03;1.30;;;25.10;85.00;;;;;;5059195;28;20416;-71
2022/07/05 11:40:07;;;;;;;3.47;0.93;;;24.80;85.60;;;;;;5059137;28;20064;-71
2022/07/05 11:42:42;;;;;;;7.07;1.33;;;24.10;85.20;;;;;;5058574;28;20052;-70
2022/07/05 11:45:09;;;;;;;3.28;0.80;;;23.80;86.50;;;;;;5071123;28;20048;-70
2022/07/05 11:47:35;;;;;;;3.35;0.75;;;23.80;86.70;;;;;;5096971;28;20040;-70
2022/07/05 11:50:01;;;;;;;3.95;0.70;;;24.00;88.20;;;;;;5096280;28;20089;-70
2022/07/05 11:52:31;;;;;;;2.25;0.77;;;24.30;89.10;;;;;;5078702;28;20079;-70
2022/07/05 11:55:05;;;;;;;1.58;0.50;;;24.30;84.70;;;;;;5078703;28;20441;-70
2022/07/05 11:57:31;;;;;;;1.60;0.60;;;24.40;85.80;;;;;;5096371;28;20158;-70
2022/07/05 11:59:57;;;;;;;1.55;0.60;;;24.40;86.40;;;;;;5074852;28;20044;-71
2022/07/05 12:02:23;;;;;;;2.83;0.88;;;24.50;87.10;;;;;;5058907;28;20361;-70
2022/07/05 12:04:53;;;;;;;2.47;0.70;;;24.60;85.00;;;;;;5058729;28;20426;-70
2022/07/05 12:07:30;;;;;;;3.17;0.82;;;24.60;84.30;;;;;;5076385;28;20415;-70
2022/07/05 12:12:43;;;;;;;1.85;0.50;;;24.80;84.60;;;;;;5058596;28;20052;-70
2022/07/05 12:15:15;;;;;;;3.38;0.60;;;25.00;85.20;;;;;;5072045;28;20434;-70
2022/07/05 12:17:47;;;;;;;2.65;0.93;;;25.00;84.30;;;;;;5058577;28;20086;-70
2022/07/05 12:20:15;;;;;;;6.75;1.15;;;25.10;81.70;;;;;;5058446;28;20041;-71
2022/07/05 12:22:43;;;;;;;3.65;0.90;;;24.80;83.50;;;;;;5058161;28;20049;-70
2022/07/05 12:25:13;;;;;;;2.45;0.60;;;24.60;84.20;;;;;;5058103;28;20048;-70
2022/07/05 12:27:41;;;;;;;4.88;0.93;;;24.70;83.20;;;;;;5075576;28;20044;-71
2022/07/05 12:30:09;;;;;;;7.63;1.00;;;24.70;86.10;;;;;;5076909;28;20123;-70
2022/07/05 12:32:54;;;;;;;3.08;0.95;;;24.70;87.70;;;;;;5077968;28;20406;-70
2022/07/05 12:35:36;;;;;;;4.15;0.93;;;24.60;87.90;;;;;;5077938;28;20101;-70
2022/07/05 12:38:18;;;;;;;4.47;0.75;;;24.40;87.50;;;;;;5077994;28;20380;-70
2022/07/05 12:40:45;;;;;;;2.85;0.70;;;24.00;87.80;;;;;;5095691;28;20040;-70
2022/07/05 12:43:16;;;;;;;5.00;0.90;;;23.90;87.80;;;;;;5071883;28;20453;-71
2022/07/05 12:45:43;;;;;;;4.18;0.88;;;23.70;89.00;;;;;;5058512;28;20350;-70
2022/07/05 12:48:11;;;;;;;3.38;1.02;;;23.60;87.70;;;;;;5057073;28;20064;-70
2022/07/05 12:50:51;;;;;;;2.88;0.80;;;23.60;88.90;;;;;;5057824;28;20080;-70
2022/07/05 12:58:59;;;;;;;3.03;0.68;;;24.00;89.70;;;;;;5066400;28;20052;-70
2022/07/05 13:01:37;;;;;;;6.40;0.85;;;23.90;89.10;;;;;;5074380;28;20117;-71
2022/07/05 13:04:14;;;;;;;4.18;0.82;;;23.90;88.80;;;;;;5074042;28;20139;-71